sensor_id;sensor_type;location;lat;lon;timestamp;P1;durP1;ratioP1;P2;durP2;ratioP2
18875;SDS011;9570;50.854;13.778;2023-01-28T00:00:23;26.63;;;14.70;;
18875;SDS011;9570;50.854;13.778;2023-01-28T00:02:48;26.37;;;15.17;;
18875;SDS011;9570;50.854;13.778;2023-01-28T00:05:14;27.07;;;14.03;;
18875;SDS011;9570;50.854;13.778;2023-01-28T00:07:40;26.80;;;14.77;;
18875;SDS011;9570;50.854;13.778;2023-01-28T00:10:06;27.10;;;14.53;;
18875;SDS011;9570;50.854;13.778;2023-01-28T00:12:31;29.83;;;14.50;;
18875;SDS011;9570;50.854;13.778;2023-01-28T00:14:57;26.93;;;15.10;;
18875;SDS011;9570;50.854;13.778;2023-01-28T00:17:22;26.13;;;13.33;;
18875;SDS011;9570;50.854;13.778;2023-01-28T00:19:48;22.47;;;13.30;;
18875;SDS011;9570;50.854;13.778;2023-01-28T00:22:13;23.80;;;13.03;;
18875;SDS011;9570;50.854;13.778;2023-01-28T00:24:39;25.03;;;13.80;;
18875;SDS011;9570;50.854;13.778;2023-01-28T00:27:04;27.67;;;14.90;;
18875;SDS011;9570;50.854;13.778;2023-01-28T00:29:30;26.10;;;14.70;;
18875;SDS011;9570;50.854;13.778;2023-01-28T00:31:55;26.20;;;14.30;;
18875;SDS011;9570;50.854;13.778;2023-01-28T00:34:21;24.77;;;14.23;;
18875;SDS011;9570;50.854;13.778;2023-01-28T00:36:47;26.45;;;14.05;;
18875;SDS011;9570;50.854;13.778;2023-01-28T00:39:21;23.15;;;13.07;;
18875;SDS011;9570;50.854;13.778;2023-01-28T00:41:50;23.23;;;12.65;;
18875;SDS011;9570;50.854;13.778;2023-01-28T00:44:16;23.45;;;12.27;;
18875;SDS011;9570;50.854;13.778;2023-01-28T00:46:42;22.73;;;13.27;;
18875;SDS011;9570;50.854;13.778;2023-01-28T00:49:08;18.40;;;11.17;;
18875;SDS011;9570;50.854;13.778;2023-01-28T00:51:34;24.77;;;13.30;;
18875;SDS011;9570;50.854;13.778;2023-01-28T00:53:59;22.47;;;12.37;;
18875;SDS011;9570;50.854;13.778;2023-01-28T00:56:25;21.70;;;12.10;;
18875;SDS011;9570;50.854;13.778;2023-01-28T00:58:51;16.80;;;10.13;;
18875;SDS011;9570;50.854;13.778;2023-01-28T01:01:20;15.50;;;9.77;;
18875;SDS011;9570;50.854;13.778;2023-01-28T01:03:48;16.55;;;10.00;;
18875;SDS011;9570;50.854;13.778;2023-01-28T01:06:27;14.35;;;8.27;;
18875;SDS011;9570;50.854;13.778;2023-01-28T01:08:58;14.38;;;9.05;;
18875;SDS011;9570;50.854;13.778;2023-01-28T01:11:23;12.27;;;8.27;;
18875;SDS011;9570;50.854;13.778;2023-01-28T01:13:53;12.73;;;8.60;;
18875;SDS011;9570;50.854;13.778;2023-01-28T01:16:20;13.57;;;8.07;;
18875;SDS011;9570;50.854;13.778;2023-01-28T01:18:47;13.93;;;8.27;;
18875;SDS011;9570;50.854;13.778;2023-01-28T01:21:15;12.25;;;7.18;;
18875;SDS011;9570;50.854;13.778;2023-01-28T01:23:42;12.45;;;7.55;;
18875;SDS011;9570;50.854;13.778;2023-01-28T01:26:08;9.63;;;6.50;;
18875;SDS011;9570;50.854;13.778;2023-01-28T01:28:33;9.40;;;6.40;;
18875;SDS011;9570;50.854;13.778;2023-01-28T01:31:00;9.47;;;6.07;;
18875;SDS011;9570;50.854;13.778;2023-01-28T01:33:27;7.90;;;5.63;;
18875;SDS011;9570;50.854;13.778;2023-01-28T01:35:53;7.53;;;5.93;;
18875;SDS011;9570;50.854;13.778;2023-01-28T01:38:19;7.87;;;5.40;;
18875;SDS011;9570;50.854;13.778;2023-01-28T01:40:45;6.40;;;5.43;;
18875;SDS011;9570;50.854;13.778;2023-01-28T01:43:54;8.90;;;6.03;;
18875;SDS011;9570;50.854;13.778;2023-01-28T01:46:10;8.43;;;5.70;;
18875;SDS011;9570;50.854;13.778;2023-01-28T01:48:36;7.03;;;5.25;;
18875;SDS011;9570;50.854;13.778;2023-01-28T01:51:06;8.80;;;6.43;;
18875;SDS011;9570;50.854;13.778;2023-01-28T01:53:35;8.27;;;6.60;;
18875;SDS011;9570;50.854;13.778;2023-01-28T01:56:05;7.60;;;5.97;;
18875;SDS011;9570;50.854;13.778;2023-01-28T01:58:34;7.93;;;6.07;;
18875;SDS011;9570;50.854;13.778;2023-01-28T02:01:03;9.98;;;6.88;;
18875;SDS011;9570;50.854;13.778;2023-01-28T02:03:35;8.85;;;6.82;;
18875;SDS011;9570;50.854;13.778;2023-01-28T02:06:07;9.63;;;6.57;;
18875;SDS011;9570;50.854;13.778;2023-01-28T02:08:33;10.00;;;6.80;;
18875;SDS011;9570;50.854;13.778;2023-01-28T02:11:03;10.20;;;7.37;;
18875;SDS011;9570;50.854;13.778;2023-01-28T02:13:38;10.07;;;7.60;;
18875;SDS011;9570;50.854;13.778;2023-01-28T02:16:07;10.70;;;8.15;;
18875;SDS011;9570;50.854;13.778;2023-01-28T02:18:34;11.40;;;7.93;;
18875;SDS011;9570;50.854;13.778;2023-01-28T02:28:47;13.48;;;8.50;;
18875;SDS011;9570;50.854;13.778;2023-01-28T02:31:33;11.85;;;8.15;;
18875;SDS011;9570;50.854;13.778;2023-01-28T02:37:02;10.75;;;8.02;;
18875;SDS011;9570;50.854;13.778;2023-01-28T02:39:40;12.65;;;8.48;;
18875;SDS011;9570;50.854;13.778;2023-01-28T02:42:16;12.35;;;8.05;;
18875;SDS011;9570;50.854;13.778;2023-01-28T02:44:47;13.32;;;8.77;;
18875;SDS011;9570;50.854;13.778;2023-01-28T02:47:13;12.77;;;8.53;;
18875;SDS011;9570;50.854;13.778;2023-01-28T02:50:01;12.60;;;9.20;;
18875;SDS011;9570;50.854;13.778;2023-01-28T02:55:50;15.63;;;9.90;;
18875;SDS011;9570;50.854;13.778;2023-01-28T03:01:15;13.88;;;9.68;;
18875;SDS011;9570;50.854;13.778;2023-01-28T03:03:58;15.45;;;10.95;;
18875;SDS011;9570;50.854;13.778;2023-01-28T03:06:40;16.85;;;10.65;;
18875;SDS011;9570;50.854;13.778;2023-01-28T03:09:09;14.63;;;10.15;;
18875;SDS011;9570;50.854;13.778;2023-01-28T03:11:47;15.57;;;11.30;;
18875;SDS011;9570;50.854;13.778;2023-01-28T03:14:40;16.80;;;11.60;;
18875;SDS011;9570;50.854;13.778;2023-01-28T03:17:31;15.80;;;11.13;;
18875;SDS011;9570;50.854;13.778;2023-01-28T03:20:21;15.30;;;10.63;;
18875;SDS011;9570;50.854;13.778;2023-01-28T03:23:13;17.02;;;10.50;;
18875;SDS011;9570;50.854;13.778;2023-01-28T03:26:03;15.43;;;11.10;;
18875;SDS011;9570;50.854;13.778;2023-01-28T03:28:50;15.57;;;10.43;;
18875;SDS011;9570;50.854;13.778;2023-01-28T03:31:36;15.82;;;10.35;;
18875;SDS011;9570;50.854;13.778;2023-01-28T03:34:21;12.00;;;9.55;;
18875;SDS011;9570;50.854;13.778;2023-01-28T03:37:06;14.48;;;9.43;;
18875;SDS011;9570;50.854;13.778;2023-01-28T03:39:33;11.82;;;9.15;;
18875;SDS011;9570;50.854;13.778;2023-01-28T03:41:59;13.63;;;9.60;;
18875;SDS011;9570;50.854;13.778;2023-01-28T03:44:36;13.02;;;8.80;;
18875;SDS011;9570;50.854;13.778;2023-01-28T03:47:15;13.02;;;9.57;;
18875;SDS011;9570;50.854;13.778;2023-01-28T03:49:43;13.95;;;9.77;;
18875;SDS011;9570;50.854;13.778;2023-01-28T03:52:10;15.93;;;10.43;;
18875;SDS011;9570;50.854;13.778;2023-01-28T03:54:36;12.45;;;9.68;;
18875;SDS011;9570;50.854;13.778;2023-01-28T03:57:02;15.93;;;10.33;;
18875;SDS011;9570;50.854;13.778;2023-01-28T03:59:29;14.80;;;9.90;;
18875;SDS011;9570;50.854;13.778;2023-01-28T04:01:55;13.40;;;10.03;;
18875;SDS011;9570;50.854;13.778;2023-01-28T04:04:21;19.03;;;10.73;;
18875;SDS011;9570;50.854;13.778;2023-01-28T04:06:50;17.10;;;11.57;;
18875;SDS011;9570;50.854;13.778;2023-01-28T04:09:16;17.65;;;11.10;;
18875;SDS011;9570;50.854;13.778;2023-01-28T04:11:41;17.83;;;11.57;;
18875;SDS011;9570;50.854;13.778;2023-01-28T04:14:07;17.93;;;11.53;;
18875;SDS011;9570;50.854;13.778;2023-01-28T04:16:32;14.93;;;10.83;;
18875;SDS011;9570;50.854;13.778;2023-01-28T04:18:58;16.77;;;10.27;;
18875;SDS011;9570;50.854;13.778;2023-01-28T04:21:23;14.20;;;10.20;;
18875;SDS011;9570;50.854;13.778;2023-01-28T04:23:49;16.43;;;10.83;;
18875;SDS011;9570;50.854;13.778;2023-01-28T04:26:15;16.05;;;10.98;;
18875;SDS011;9570;50.854;13.778;2023-01-28T04:28:41;15.37;;;10.80;;
18875;SDS011;9570;50.854;13.778;2023-01-28T04:31:06;16.47;;;10.63;;
18875;SDS011;9570;50.854;13.778;2023-01-28T04:33:32;14.07;;;9.53;;
18875;SDS011;9570;50.854;13.778;2023-01-28T04:35:57;15.03;;;10.27;;
18875;SDS011;9570;50.854;13.778;2023-01-28T04:38:23;13.03;;;9.50;;
18875;SDS011;9570;50.854;13.778;2023-01-28T04:40:49;15.57;;;10.30;;
18875;SDS011;9570;50.854;13.778;2023-01-28T04:43:17;15.85;;;10.02;;
18875;SDS011;9570;50.854;13.778;2023-01-28T04:45:44;14.20;;;9.70;;
18875;SDS011;9570;50.854;13.778;2023-01-28T04:48:12;12.43;;;8.77;;
18875;SDS011;9570;50.854;13.778;2023-01-28T04:50:38;11.68;;;8.40;;
18875;SDS011;9570;50.854;13.778;2023-01-28T04:53:04;13.67;;;9.27;;
18875;SDS011;9570;50.854;13.778;2023-01-28T04:55:29;13.10;;;9.40;;
18875;SDS011;9570;50.854;13.778;2023-01-28T04:57:55;12.00;;;9.03;;
18875;SDS011;9570;50.854;13.778;2023-01-28T05:00:20;14.03;;;9.60;;
18875;SDS011;9570;50.854;13.778;2023-01-28T05:02:46;12.23;;;9.40;;
18875;SDS011;9570;50.854;13.778;2023-01-28T05:05:11;15.33;;;11.93;;
18875;SDS011;9570;50.854;13.778;2023-01-28T05:07:37;16.17;;;11.10;;
18875;SDS011;9570;50.854;13.778;2023-01-28T05:10:02;16.30;;;11.33;;
18875;SDS011;9570;50.854;13.778;2023-01-28T05:12:29;18.33;;;11.85;;
18875;SDS011;9570;50.854;13.778;2023-01-28T05:14:56;15.38;;;11.02;;
18875;SDS011;9570;50.854;13.778;2023-01-28T05:17:24;14.38;;;10.52;;
18875;SDS011;9570;50.854;13.778;2023-01-28T05:19:50;14.53;;;10.40;;
18875;SDS011;9570;50.854;13.778;2023-01-28T05:22:15;15.87;;;10.47;;
18875;SDS011;9570;50.854;13.778;2023-01-28T05:24:41;14.97;;;10.40;;
18875;SDS011;9570;50.854;13.778;2023-01-28T05:27:06;13.17;;;10.40;;
18875;SDS011;9570;50.854;13.778;2023-01-28T05:29:32;14.10;;;10.17;;
18875;SDS011;9570;50.854;13.778;2023-01-28T05:31:57;13.17;;;10.10;;
18875;SDS011;9570;50.854;13.778;2023-01-28T05:34:23;15.40;;;10.07;;
18875;SDS011;9570;50.854;13.778;2023-01-28T05:36:48;13.63;;;9.37;;
18875;SDS011;9570;50.854;13.778;2023-01-28T05:39:14;14.50;;;9.97;;
18875;SDS011;9570;50.854;13.778;2023-01-28T05:41:39;11.80;;;8.73;;
18875;SDS011;9570;50.854;13.778;2023-01-28T05:44:05;12.23;;;8.50;;
18875;SDS011;9570;50.854;13.778;2023-01-28T05:46:30;10.90;;;8.10;;
18875;SDS011;9570;50.854;13.778;2023-01-28T05:48:55;11.00;;;8.03;;
18875;SDS011;9570;50.854;13.778;2023-01-28T05:51:21;10.63;;;8.00;;
18875;SDS011;9570;50.854;13.778;2023-01-28T05:53:46;10.00;;;7.77;;
18875;SDS011;9570;50.854;13.778;2023-01-28T05:56:12;11.60;;;8.23;;
18875;SDS011;9570;50.854;13.778;2023-01-28T05:58:37;9.13;;;7.40;;
18875;SDS011;9570;50.854;13.778;2023-01-28T06:01:03;10.23;;;7.50;;
18875;SDS011;9570;50.854;13.778;2023-01-28T06:03:28;9.27;;;7.00;;
18875;SDS011;9570;50.854;13.778;2023-01-28T06:05:54;7.97;;;6.27;;
18875;SDS011;9570;50.854;13.778;2023-01-28T06:08:19;7.93;;;5.87;;
18875;SDS011;9570;50.854;13.778;2023-01-28T06:10:45;7.60;;;6.13;;
18875;SDS011;9570;50.854;13.778;2023-01-28T06:13:10;8.57;;;5.87;;
18875;SDS011;9570;50.854;13.778;2023-01-28T06:15:36;8.33;;;5.53;;
18875;SDS011;9570;50.854;13.778;2023-01-28T06:18:02;6.27;;;5.23;;
18875;SDS011;9570;50.854;13.778;2023-01-28T06:20:27;7.90;;;5.20;;
18875;SDS011;9570;50.854;13.778;2023-01-28T06:22:53;5.90;;;5.23;;
18875;SDS011;9570;50.854;13.778;2023-01-28T06:25:19;6.73;;;5.47;;
18875;SDS011;9570;50.854;13.778;2023-01-28T06:27:44;9.37;;;5.63;;
18875;SDS011;9570;50.854;13.778;2023-01-28T06:30:10;5.57;;;4.93;;
18875;SDS011;9570;50.854;13.778;2023-01-28T06:32:36;6.60;;;5.63;;
18875;SDS011;9570;50.854;13.778;2023-01-28T06:35:02;8.13;;;5.43;;
18875;SDS011;9570;50.854;13.778;2023-01-28T06:37:28;9.82;;;6.15;;
18875;SDS011;9570;50.854;13.778;2023-01-28T06:39:53;7.23;;;5.43;;
18875;SDS011;9570;50.854;13.778;2023-01-28T06:42:19;7.53;;;5.20;;
18875;SDS011;9570;50.854;13.778;2023-01-28T06:44:44;6.33;;;5.20;;
18875;SDS011;9570;50.854;13.778;2023-01-28T06:47:10;6.20;;;5.60;;
18875;SDS011;9570;50.854;13.778;2023-01-28T06:49:36;6.60;;;5.17;;
18875;SDS011;9570;50.854;13.778;2023-01-28T06:52:01;7.50;;;5.47;;
18875;SDS011;9570;50.854;13.778;2023-01-28T06:54:28;7.28;;;5.25;;
18875;SDS011;9570;50.854;13.778;2023-01-28T06:56:54;8.17;;;5.77;;
18875;SDS011;9570;50.854;13.778;2023-01-28T06:59:19;12.07;;;5.73;;
18875;SDS011;9570;50.854;13.778;2023-01-28T07:01:45;6.33;;;5.27;;
18875;SDS011;9570;50.854;13.778;2023-01-28T07:04:10;7.00;;;5.43;;
18875;SDS011;9570;50.854;13.778;2023-01-28T07:06:36;7.07;;;5.73;;
18875;SDS011;9570;50.854;13.778;2023-01-28T07:09:01;5.80;;;5.17;;
18875;SDS011;9570;50.854;13.778;2023-01-28T07:11:27;7.20;;;5.83;;
18875;SDS011;9570;50.854;13.778;2023-01-28T07:13:52;8.50;;;5.83;;
18875;SDS011;9570;50.854;13.778;2023-01-28T07:16:18;8.60;;;6.27;;
18875;SDS011;9570;50.854;13.778;2023-01-28T07:18:43;9.27;;;5.83;;
18875;SDS011;9570;50.854;13.778;2023-01-28T07:21:09;7.63;;;5.40;;
18875;SDS011;9570;50.854;13.778;2023-01-28T07:23:34;7.87;;;5.80;;
18875;SDS011;9570;50.854;13.778;2023-01-28T07:26:00;8.43;;;6.17;;
18875;SDS011;9570;50.854;13.778;2023-01-28T07:28:27;8.13;;;5.65;;
18875;SDS011;9570;50.854;13.778;2023-01-28T07:30:52;11.03;;;5.50;;
18875;SDS011;9570;50.854;13.778;2023-01-28T07:33:18;8.50;;;5.57;;
18875;SDS011;9570;50.854;13.778;2023-01-28T07:35:44;6.87;;;5.77;;
18875;SDS011;9570;50.854;13.778;2023-01-28T07:38:10;7.00;;;5.38;;
18875;SDS011;9570;50.854;13.778;2023-01-28T07:40:36;6.17;;;5.10;;
18875;SDS011;9570;50.854;13.778;2023-01-28T07:43:02;6.27;;;5.30;;
18875;SDS011;9570;50.854;13.778;2023-01-28T07:45:28;5.72;;;4.82;;
18875;SDS011;9570;50.854;13.778;2023-01-28T07:47:56;8.52;;;5.20;;
18875;SDS011;9570;50.854;13.778;2023-01-28T07:50:22;6.70;;;5.75;;
18875;SDS011;9570;50.854;13.778;2023-01-28T07:52:49;6.82;;;5.45;;
18875;SDS011;9570;50.854;13.778;2023-01-28T07:55:14;6.67;;;5.17;;
18875;SDS011;9570;50.854;13.778;2023-01-28T07:58:14;8.07;;;4.93;;
18875;SDS011;9570;50.854;13.778;2023-01-28T08:00:35;7.15;;;5.78;;
18875;SDS011;9570;50.854;13.778;2023-01-28T08:03:02;8.07;;;5.55;;
18875;SDS011;9570;50.854;13.778;2023-01-28T08:05:32;8.68;;;5.53;;
18875;SDS011;9570;50.854;13.778;2023-01-28T08:08:05;6.10;;;4.72;;
18875;SDS011;9570;50.854;13.778;2023-01-28T08:10:32;5.35;;;4.20;;
18875;SDS011;9570;50.854;13.778;2023-01-28T08:12:58;5.27;;;4.77;;
18875;SDS011;9570;50.854;13.778;2023-01-28T08:15:23;7.20;;;4.40;;
18875;SDS011;9570;50.854;13.778;2023-01-28T08:17:50;5.40;;;4.57;;
18875;SDS011;9570;50.854;13.778;2023-01-28T08:20:17;4.28;;;3.88;;
18875;SDS011;9570;50.854;13.778;2023-01-28T08:22:43;5.33;;;3.77;;
18875;SDS011;9570;50.854;13.778;2023-01-28T08:25:08;5.53;;;4.23;;
18875;SDS011;9570;50.854;13.778;2023-01-28T08:27:34;6.50;;;4.63;;
18875;SDS011;9570;50.854;13.778;2023-01-28T08:29:59;6.10;;;4.70;;
18875;SDS011;9570;50.854;13.778;2023-01-28T08:32:24;6.30;;;5.00;;
18875;SDS011;9570;50.854;13.778;2023-01-28T08:34:50;7.23;;;5.50;;
18875;SDS011;9570;50.854;13.778;2023-01-28T08:37:15;7.77;;;5.03;;
18875;SDS011;9570;50.854;13.778;2023-01-28T08:39:41;7.00;;;5.03;;
18875;SDS011;9570;50.854;13.778;2023-01-28T08:42:06;6.57;;;5.17;;
18875;SDS011;9570;50.854;13.778;2023-01-28T08:44:32;7.30;;;5.10;;
18875;SDS011;9570;50.854;13.778;2023-01-28T08:46:58;6.57;;;5.50;;
18875;SDS011;9570;50.854;13.778;2023-01-28T08:49:23;9.47;;;5.83;;
18875;SDS011;9570;50.854;13.778;2023-01-28T08:51:49;9.03;;;5.63;;
18875;SDS011;9570;50.854;13.778;2023-01-28T08:54:15;6.93;;;5.60;;
18875;SDS011;9570;50.854;13.778;2023-01-28T08:56:40;7.77;;;5.50;;
18875;SDS011;9570;50.854;13.778;2023-01-28T08:59:11;7.65;;;5.32;;
18875;SDS011;9570;50.854;13.778;2023-01-28T09:01:37;5.18;;;4.00;;
18875;SDS011;9570;50.854;13.778;2023-01-28T09:04:03;5.93;;;4.30;;
18875;SDS011;9570;50.854;13.778;2023-01-28T09:06:28;4.63;;;3.70;;
18875;SDS011;9570;50.854;13.778;2023-01-28T09:08:57;3.90;;;3.50;;
18875;SDS011;9570;50.854;13.778;2023-01-28T09:11:26;3.40;;;3.03;;
18875;SDS011;9570;50.854;13.778;2023-01-28T09:13:52;5.07;;;3.55;;
18875;SDS011;9570;50.854;13.778;2023-01-28T09:16:17;5.60;;;2.67;;
18875;SDS011;9570;50.854;13.778;2023-01-28T09:18:43;4.57;;;3.17;;
18875;SDS011;9570;50.854;13.778;2023-01-28T09:21:09;5.13;;;3.10;;
18875;SDS011;9570;50.854;13.778;2023-01-28T09:23:35;3.87;;;3.50;;
18875;SDS011;9570;50.854;13.778;2023-01-28T09:26:02;4.70;;;3.47;;
18875;SDS011;9570;50.854;13.778;2023-01-28T09:28:28;5.97;;;3.88;;
18875;SDS011;9570;50.854;13.778;2023-01-28T09:30:59;4.33;;;3.70;;
18875;SDS011;9570;50.854;13.778;2023-01-28T09:33:32;5.50;;;4.25;;
18875;SDS011;9570;50.854;13.778;2023-01-28T09:36:00;6.20;;;4.20;;
18875;SDS011;9570;50.854;13.778;2023-01-28T09:38:27;5.10;;;3.90;;
18875;SDS011;9570;50.854;13.778;2023-01-28T09:40:54;5.18;;;4.13;;
18875;SDS011;9570;50.854;13.778;2023-01-28T09:43:37;5.63;;;4.30;;
18875;SDS011;9570;50.854;13.778;2023-01-28T09:46:13;6.25;;;3.83;;
18875;SDS011;9570;50.854;13.778;2023-01-28T09:48:41;6.85;;;3.75;;
18875;SDS011;9570;50.854;13.778;2023-01-28T09:51:20;5.75;;;3.92;;
18875;SDS011;9570;50.854;13.778;2023-01-28T09:53:57;4.75;;;3.63;;
18875;SDS011;9570;50.854;13.778;2023-01-28T09:56:33;4.72;;;3.88;;
18875;SDS011;9570;50.854;13.778;2023-01-28T09:59:14;5.05;;;3.92;;
18875;SDS011;9570;50.854;13.778;2023-01-28T10:01:43;4.13;;;3.72;;
18875;SDS011;9570;50.854;13.778;2023-01-28T10:04:28;5.60;;;3.90;;
18875;SDS011;9570;50.854;13.778;2023-01-28T10:07:06;5.10;;;4.25;;
18875;SDS011;9570;50.854;13.778;2023-01-28T10:10:01;6.68;;;4.65;;
18875;SDS011;9570;50.854;13.778;2023-01-28T10:16:05;4.82;;;3.78;;
18875;SDS011;9570;50.854;13.778;2023-01-28T10:18:45;6.45;;;3.88;;
18875;SDS011;9570;50.854;13.778;2023-01-28T10:21:20;4.70;;;3.83;;
18875;SDS011;9570;50.854;13.778;2023-01-28T10:24:02;4.60;;;3.75;;
18875;SDS011;9570;50.854;13.778;2023-01-28T10:26:40;5.50;;;4.63;;
18875;SDS011;9570;50.854;13.778;2023-01-28T10:29:18;4.85;;;4.35;;
18875;SDS011;9570;50.854;13.778;2023-01-28T10:32:15;5.78;;;3.97;;
18875;SDS011;9570;50.854;13.778;2023-01-28T10:34:37;6.20;;;4.35;;
18875;SDS011;9570;50.854;13.778;2023-01-28T10:37:02;5.13;;;4.00;;
18875;SDS011;9570;50.854;13.778;2023-01-28T10:39:28;3.65;;;3.28;;
18875;SDS011;9570;50.854;13.778;2023-01-28T10:41:54;3.60;;;3.30;;
18875;SDS011;9570;50.854;13.778;2023-01-28T10:44:28;5.43;;;3.70;;
18875;SDS011;9570;50.854;13.778;2023-01-28T10:46:58;4.35;;;3.08;;
18875;SDS011;9570;50.854;13.778;2023-01-28T10:49:28;4.40;;;3.83;;
18875;SDS011;9570;50.854;13.778;2023-01-28T10:51:55;6.70;;;3.60;;
18875;SDS011;9570;50.854;13.778;2023-01-28T10:54:22;5.40;;;3.90;;
18875;SDS011;9570;50.854;13.778;2023-01-28T10:56:56;5.53;;;3.90;;
18875;SDS011;9570;50.854;13.778;2023-01-28T10:59:32;4.50;;;3.63;;
18875;SDS011;9570;50.854;13.778;2023-01-28T11:02:01;4.85;;;3.70;;
18875;SDS011;9570;50.854;13.778;2023-01-28T11:04:30;6.68;;;3.90;;
18875;SDS011;9570;50.854;13.778;2023-01-28T11:07:01;5.68;;;3.83;;
18875;SDS011;9570;50.854;13.778;2023-01-28T11:09:29;6.00;;;4.03;;
18875;SDS011;9570;50.854;13.778;2023-01-28T11:11:55;7.07;;;3.70;;
18875;SDS011;9570;50.854;13.778;2023-01-28T11:14:25;8.68;;;4.18;;
18875;SDS011;9570;50.854;13.778;2023-01-28T11:16:52;6.97;;;3.90;;
18875;SDS011;9570;50.854;13.778;2023-01-28T11:19:20;5.13;;;3.42;;
18875;SDS011;9570;50.854;13.778;2023-01-28T11:21:52;8.77;;;3.50;;
18875;SDS011;9570;50.854;13.778;2023-01-28T11:24:20;3.47;;;3.00;;
18875;SDS011;9570;50.854;13.778;2023-01-28T11:26:50;7.05;;;3.20;;
18875;SDS011;9570;50.854;13.778;2023-01-28T11:29:22;5.45;;;3.10;;
18875;SDS011;9570;50.854;13.778;2023-01-28T11:31:54;4.70;;;3.17;;
18875;SDS011;9570;50.854;13.778;2023-01-28T11:34:23;7.50;;;2.88;;
18875;SDS011;9570;50.854;13.778;2023-01-28T11:37:00;3.30;;;2.50;;
18875;SDS011;9570;50.854;13.778;2023-01-28T11:39:30;4.82;;;2.85;;
18875;SDS011;9570;50.854;13.778;2023-01-28T11:42:02;4.37;;;2.60;;
18875;SDS011;9570;50.854;13.778;2023-01-28T11:44:46;5.28;;;3.30;;
18875;SDS011;9570;50.854;13.778;2023-01-28T11:47:21;3.15;;;2.67;;
18875;SDS011;9570;50.854;13.778;2023-01-28T11:52:59;4.20;;;3.30;;
18875;SDS011;9570;50.854;13.778;2023-01-28T11:55:52;4.82;;;2.97;;
18875;SDS011;9570;50.854;13.778;2023-01-28T11:58:35;5.53;;;2.90;;
18875;SDS011;9570;50.854;13.778;2023-01-28T12:01:09;5.55;;;3.08;;
18875;SDS011;9570;50.854;13.778;2023-01-28T12:04:02;4.80;;;3.08;;
18875;SDS011;9570;50.854;13.778;2023-01-28T12:06:48;3.40;;;3.05;;
18875;SDS011;9570;50.854;13.778;2023-01-28T12:09:28;3.47;;;2.75;;
18875;SDS011;9570;50.854;13.778;2023-01-28T12:14:53;5.72;;;3.40;;
18875;SDS011;9570;50.854;13.778;2023-01-28T12:21:02;4.38;;;3.10;;
18875;SDS011;9570;50.854;13.778;2023-01-28T12:26:41;7.70;;;3.30;;
18875;SDS011;9570;50.854;13.778;2023-01-28T12:29:28;4.93;;;3.33;;
18875;SDS011;9570;50.854;13.778;2023-01-28T12:37:40;4.97;;;3.25;;
18875;SDS011;9570;50.854;13.778;2023-01-28T12:45:54;3.58;;;2.72;;
18875;SDS011;9570;50.854;13.778;2023-01-28T12:48:31;3.38;;;2.75;;
18875;SDS011;9570;50.854;13.778;2023-01-28T12:53:52;4.80;;;2.92;;
18875;SDS011;9570;50.854;13.778;2023-01-28T12:56:24;4.68;;;2.97;;
18875;SDS011;9570;50.854;13.778;2023-01-28T12:59:05;2.55;;;2.35;;
18875;SDS011;9570;50.854;13.778;2023-01-28T13:01:45;4.90;;;2.90;;
18875;SDS011;9570;50.854;13.778;2023-01-28T13:04:38;3.58;;;2.90;;
18875;SDS011;9570;50.854;13.778;2023-01-28T13:07:25;3.10;;;2.47;;
18875;SDS011;9570;50.854;13.778;2023-01-28T13:12:49;3.63;;;2.75;;
18875;SDS011;9570;50.854;13.778;2023-01-28T13:15:15;3.50;;;2.87;;
18875;SDS011;9570;50.854;13.778;2023-01-28T13:17:58;2.95;;;2.65;;
18875;SDS011;9570;50.854;13.778;2023-01-28T13:20:29;3.63;;;2.70;;
18875;SDS011;9570;50.854;13.778;2023-01-28T13:23:04;2.85;;;2.60;;
18875;SDS011;9570;50.854;13.778;2023-01-28T13:25:49;4.75;;;2.90;;
18875;SDS011;9570;50.854;13.778;2023-01-28T13:28:29;4.18;;;2.83;;
18875;SDS011;9570;50.854;13.778;2023-01-28T13:31:06;4.13;;;2.80;;
18875;SDS011;9570;50.854;13.778;2023-01-28T13:33:44;9.45;;;3.20;;
18875;SDS011;9570;50.854;13.778;2023-01-28T13:36:23;4.75;;;3.05;;
18875;SDS011;9570;50.854;13.778;2023-01-28T13:41:42;4.85;;;3.10;;
18875;SDS011;9570;50.854;13.778;2023-01-28T13:44:26;4.45;;;2.88;;
18875;SDS011;9570;50.854;13.778;2023-01-28T13:46:56;5.20;;;3.22;;
18875;SDS011;9570;50.854;13.778;2023-01-28T13:52:13;4.43;;;3.53;;
18875;SDS011;9570;50.854;13.778;2023-01-28T13:55:04;4.78;;;3.30;;
18875;SDS011;9570;50.854;13.778;2023-01-28T13:57:47;3.55;;;3.08;;
18875;SDS011;9570;50.854;13.778;2023-01-28T14:05:55;4.43;;;3.10;;
18875;SDS011;9570;50.854;13.778;2023-01-28T14:11:32;3.28;;;2.97;;
18875;SDS011;9570;50.854;13.778;2023-01-28T14:17:47;5.10;;;3.10;;
18875;SDS011;9570;50.854;13.778;2023-01-28T14:20:25;7.63;;;3.67;;
18875;SDS011;9570;50.854;13.778;2023-01-28T14:22:58;3.72;;;3.10;;
18875;SDS011;9570;50.854;13.778;2023-01-28T14:25:46;4.65;;;3.40;;
18875;SDS011;9570;50.854;13.778;2023-01-28T14:31:31;4.93;;;3.88;;
18875;SDS011;9570;50.854;13.778;2023-01-28T14:34:03;5.95;;;3.80;;
18875;SDS011;9570;50.854;13.778;2023-01-28T14:36:35;5.50;;;3.58;;
18875;SDS011;9570;50.854;13.778;2023-01-28T14:39:03;4.10;;;3.63;;
18875;SDS011;9570;50.854;13.778;2023-01-28T14:41:28;4.20;;;3.80;;
18875;SDS011;9570;50.854;13.778;2023-01-28T14:43:54;5.83;;;4.20;;
18875;SDS011;9570;50.854;13.778;2023-01-28T14:46:24;6.53;;;4.15;;
18875;SDS011;9570;50.854;13.778;2023-01-28T14:51:57;5.05;;;3.28;;
18875;SDS011;9570;50.854;13.778;2023-01-28T14:57:24;4.68;;;3.55;;
18875;SDS011;9570;50.854;13.778;2023-01-28T14:59:59;5.07;;;3.53;;
18875;SDS011;9570;50.854;13.778;2023-01-28T15:02:32;5.85;;;3.75;;
18875;SDS011;9570;50.854;13.778;2023-01-28T15:05:07;5.00;;;4.00;;
18875;SDS011;9570;50.854;13.778;2023-01-28T15:07:35;5.38;;;4.15;;
18875;SDS011;9570;50.854;13.778;2023-01-28T15:12:31;5.88;;;3.90;;
18875;SDS011;9570;50.854;13.778;2023-01-28T15:15:08;6.93;;;4.43;;
18875;SDS011;9570;50.854;13.778;2023-01-28T15:17:46;5.30;;;3.95;;
18875;SDS011;9570;50.854;13.778;2023-01-28T15:20:17;5.90;;;3.95;;
18875;SDS011;9570;50.854;13.778;2023-01-28T15:22:45;6.85;;;3.97;;
18875;SDS011;9570;50.854;13.778;2023-01-28T15:25:15;6.10;;;3.87;;
18875;SDS011;9570;50.854;13.778;2023-01-28T15:27:42;6.00;;;3.78;;
18875;SDS011;9570;50.854;13.778;2023-01-28T15:30:18;4.17;;;3.60;;
18875;SDS011;9570;50.854;13.778;2023-01-28T15:32:58;4.85;;;3.58;;
18875;SDS011;9570;50.854;13.778;2023-01-28T15:35:37;5.50;;;3.45;;
18875;SDS011;9570;50.854;13.778;2023-01-28T15:38:10;6.68;;;4.05;;
18875;SDS011;9570;50.854;13.778;2023-01-28T15:40:39;4.63;;;3.70;;
18875;SDS011;9570;50.854;13.778;2023-01-28T15:43:11;4.95;;;3.33;;
18875;SDS011;9570;50.854;13.778;2023-01-28T15:45:47;5.90;;;3.50;;
18875;SDS011;9570;50.854;13.778;2023-01-28T15:48:14;4.57;;;3.40;;
18875;SDS011;9570;50.854;13.778;2023-01-28T15:50:40;5.05;;;3.17;;
18875;SDS011;9570;50.854;13.778;2023-01-28T15:53:09;5.13;;;3.65;;
18875;SDS011;9570;50.854;13.778;2023-01-28T15:55:39;3.92;;;3.20;;
18875;SDS011;9570;50.854;13.778;2023-01-28T16:01:02;5.22;;;3.85;;
18875;SDS011;9570;50.854;13.778;2023-01-28T16:03:27;4.95;;;3.60;;
18875;SDS011;9570;50.854;13.778;2023-01-28T16:05:54;5.23;;;3.20;;
18875;SDS011;9570;50.854;13.778;2023-01-28T16:08:26;6.50;;;3.38;;
18875;SDS011;9570;50.854;13.778;2023-01-28T16:11:00;3.35;;;3.00;;
18875;SDS011;9570;50.854;13.778;2023-01-28T16:13:27;5.40;;;3.50;;
18875;SDS011;9570;50.854;13.778;2023-01-28T16:15:56;4.85;;;3.03;;
18875;SDS011;9570;50.854;13.778;2023-01-28T16:21:08;4.55;;;3.15;;
18875;SDS011;9570;50.854;13.778;2023-01-28T16:23:36;5.85;;;3.35;;